createdAt,value
2019-02-03T00:00:27.383Z,0.00
2019-02-03T00:01:27.390Z,0.00
2019-02-03T00:02:27.392Z,0.00
2019-02-03T00:03:27.397Z,0.00
2019-02-03T00:04:27.403Z,0.00
2019-02-03T00:05:27.408Z,0.00
2019-02-03T00:06:27.416Z,0.00
2019-02-03T00:07:27.417Z,0.00
2019-02-03T00:08:27.423Z,0.00
2019-02-03T00:09:27.427Z,0.00
2019-02-03T00:10:27.437Z,0.00
2019-02-03T00:11:27.441Z,0.00
2019-02-03T00:12:27.442Z,0.00
2019-02-03T00:13:27.451Z,0.00
2019-02-03T00:14:27.454Z,0.00
2019-02-03T00:15:27.462Z,0.00
2019-02-03T00:16:27.463Z,0.00
2019-02-03T00:17:27.470Z,0.00
2019-02-03T00:18:27.477Z,0.00
2019-02-03T00:19:27.481Z,0.00
2019-02-03T00:20:27.485Z,0.00
2019-02-03T00:21:27.492Z,0.00
2019-02-03T00:22:27.494Z,0.00
2019-02-03T00:23:27.501Z,0.00
2019-02-03T00:24:27.504Z,0.00
2019-02-03T00:25:27.511Z,0.00
2019-02-03T00:26:27.512Z,0.00
2019-02-03T00:27:27.520Z,0.00
2019-02-03T00:28:27.524Z,0.00
2019-02-03T00:29:27.531Z,0.00
2019-02-03T00:30:27.535Z,0.00
2019-02-03T00:31:27.539Z,0.00
2019-02-03T00:32:27.545Z,0.00
2019-02-03T00:33:27.549Z,0.00
2019-02-03T00:34:27.557Z,0.00
2019-02-03T00:35:27.560Z,0.00
2019-02-03T00:36:27.564Z,0.00
2019-02-03T00:37:27.569Z,0.00
2019-02-03T00:38:27.574Z,0.00
2019-02-03T00:39:27.584Z,0.00
2019-02-03T00:40:27.663Z,0.00
2019-02-03T00:41:27.614Z,0.00
2019-02-03T00:42:27.597Z,0.00
2019-02-03T00:43:27.601Z,0.00
2019-02-03T00:44:27.605Z,0.00
2019-02-03T00:45:27.613Z,0.00
2019-02-03T00:46:27.614Z,0.00
2019-02-03T00:47:27.622Z,0.00
2019-02-03T00:48:27.714Z,0.00
2019-02-03T00:49:27.629Z,0.00
2019-02-03T00:50:27.637Z,0.00
2019-02-03T00:51:27.640Z,0.00
2019-02-03T00:52:27.648Z,0.00
2019-02-03T00:53:27.650Z,0.00
2019-02-03T00:54:27.654Z,0.00
2019-02-03T00:55:27.660Z,0.00
2019-02-03T00:56:27.667Z,0.00
2019-02-03T00:57:27.674Z,0.00
2019-02-03T00:58:27.675Z,0.00
2019-02-03T00:59:27.680Z,0.00
2019-02-03T01:00:27.685Z,0.00
2019-02-03T01:01:27.707Z,0.00
2019-02-03T01:02:27.694Z,0.00
2019-02-03T01:03:27.701Z,0.00
2019-02-03T01:04:27.705Z,0.00
2019-02-03T01:05:27.709Z,0.00
2019-02-03T01:06:27.714Z,0.00
2019-02-03T01:07:27.967Z,0.00
2019-02-03T01:08:27.726Z,0.00
2019-02-03T01:09:27.728Z,0.00
2019-02-03T01:10:27.733Z,0.00
2019-02-03T01:11:27.738Z,0.00
2019-02-03T01:12:27.742Z,0.00
2019-02-03T01:13:27.750Z,0.00
2019-02-03T01:14:27.755Z,0.00
2019-02-03T01:15:27.759Z,0.00
2019-02-03T01:16:27.762Z,0.00
2019-02-03T01:17:27.767Z,0.00
2019-02-03T01:18:27.774Z,0.00
2019-02-03T01:19:27.778Z,0.00
2019-02-03T01:20:27.782Z,0.00
2019-02-03T01:21:27.789Z,0.00
2019-02-03T01:22:27.794Z,0.00
2019-02-03T01:23:27.797Z,0.00
2019-02-03T01:24:27.801Z,0.00
2019-02-03T01:25:27.808Z,0.00
2019-02-03T01:26:27.812Z,0.00
2019-02-03T01:27:27.830Z,0.00
2019-02-03T01:28:27.820Z,0.00
2019-02-03T01:29:27.826Z,0.00
2019-02-03T01:30:27.832Z,0.00
2019-02-03T01:31:27.839Z,0.00
2019-02-03T01:32:27.843Z,0.00
2019-02-03T01:33:27.845Z,0.00
2019-02-03T01:34:27.852Z,0.00
2019-02-03T01:35:27.855Z,0.00
2019-02-03T01:36:27.859Z,0.00
2019-02-03T01:37:38.954Z,0.00
2019-02-03T01:38:27.872Z,0.00
2019-02-03T01:39:27.882Z,0.00
2019-02-03T01:40:27.878Z,0.00
2019-02-03T01:41:27.889Z,0.00
2019-02-03T01:42:27.890Z,0.00
2019-02-03T01:43:27.894Z,0.00
2019-02-03T01:44:27.904Z,0.00
2019-02-03T01:45:27.904Z,0.00
2019-02-03T01:46:27.908Z,0.00
2019-02-03T01:47:27.916Z,0.00
2019-02-03T01:48:27.921Z,0.00
2019-02-03T01:49:27.922Z,0.00
2019-02-03T01:50:27.930Z,0.00
2019-02-03T01:51:27.933Z,0.00
2019-02-03T01:52:27.935Z,0.00
2019-02-03T01:53:27.941Z,0.00
2019-02-03T01:54:27.948Z,0.00
2019-02-03T01:55:27.953Z,0.00
2019-02-03T01:56:27.962Z,0.00
2019-02-03T01:57:27.961Z,0.00
2019-02-03T01:58:27.968Z,0.00
2019-02-03T01:59:27.970Z,0.00
2019-02-03T02:00:27.977Z,0.00
2019-02-03T02:01:27.978Z,0.00
2019-02-03T02:02:27.983Z,0.00
2019-02-03T02:03:27.987Z,0.00
2019-02-03T02:04:27.991Z,0.00
2019-02-03T02:05:27.996Z,0.00
2019-02-03T02:06:28.005Z,0.00
2019-02-03T02:07:28.007Z,0.00
2019-02-03T02:08:28.014Z,0.00
2019-02-03T02:09:28.018Z,0.00
2019-02-03T02:10:28.020Z,0.00
2019-02-03T02:11:28.025Z,0.00
2019-02-03T02:12:28.028Z,0.00
2019-02-03T02:13:28.034Z,0.00
2019-02-03T02:14:28.038Z,0.00
2019-02-03T02:15:28.044Z,0.00
2019-02-03T02:16:28.047Z,0.00
2019-02-03T02:17:28.051Z,0.00
2019-02-03T02:18:28.056Z,0.00
2019-02-03T02:19:28.060Z,0.00
2019-02-03T02:20:28.069Z,0.00
2019-02-03T02:21:28.068Z,0.00
2019-02-03T02:22:28.077Z,0.00
2019-02-03T02:23:28.079Z,0.00
2019-02-03T02:24:28.084Z,0.00
2019-02-03T02:25:28.086Z,0.00
2019-02-03T02:26:28.092Z,0.00
2019-02-03T02:27:28.096Z,0.00
2019-02-03T02:28:28.100Z,0.00
2019-02-03T02:29:28.106Z,0.00
2019-02-03T02:30:28.168Z,0.00
2019-02-03T02:31:28.113Z,0.00
2019-02-03T02:32:28.117Z,0.00
2019-02-03T02:33:28.121Z,0.00
2019-02-03T02:34:28.135Z,0.00
2019-02-03T02:35:28.135Z,0.00
2019-02-03T02:36:28.138Z,0.00
2019-02-03T02:37:28.152Z,0.00
2019-02-03T02:38:28.145Z,0.00
2019-02-03T02:39:28.153Z,0.00
2019-02-03T02:40:28.155Z,0.00
2019-02-03T02:41:28.158Z,0.00
2019-02-03T02:42:28.168Z,0.00
2019-02-03T02:43:28.169Z,0.00
2019-02-03T02:44:28.176Z,0.00
2019-02-03T02:45:28.177Z,0.00
2019-02-03T02:46:28.189Z,0.00
2019-02-03T02:47:28.186Z,0.00
2019-02-03T02:48:28.192Z,0.00
2019-02-03T02:49:28.197Z,0.00
2019-02-03T02:50:28.198Z,0.00
2019-02-03T02:51:28.206Z,0.00
2019-02-03T02:52:28.219Z,0.00
2019-02-03T02:53:28.214Z,0.00
2019-02-03T02:54:28.216Z,0.00
2019-02-03T02:55:28.221Z,0.00
2019-02-03T02:56:28.224Z,0.00
2019-02-03T02:57:28.229Z,0.00
2019-02-03T02:58:28.241Z,0.00
2019-02-03T02:59:28.238Z,0.00
2019-02-03T03:00:28.241Z,0.00
2019-02-03T03:01:28.246Z,0.00
2019-02-03T03:02:28.252Z,0.00
2019-02-03T03:03:28.258Z,0.00
2019-02-03T03:04:28.264Z,0.00
2019-02-03T03:05:28.264Z,0.00
2019-02-03T03:06:28.271Z,0.00
2019-02-03T03:07:28.273Z,0.00
2019-02-03T03:08:28.276Z,0.00
2019-02-03T03:09:28.284Z,0.00
2019-02-03T03:10:28.284Z,0.00
2019-02-03T03:11:28.291Z,0.00
2019-02-03T03:12:28.295Z,0.00
2019-02-03T03:13:28.302Z,0.00
2019-02-03T03:14:28.303Z,0.00
2019-02-03T03:15:28.309Z,0.00
2019-02-03T03:16:28.314Z,0.00
2019-02-03T03:17:28.319Z,0.00
2019-02-03T03:18:28.320Z,0.00
2019-02-03T03:19:28.326Z,0.00
2019-02-03T03:20:28.329Z,0.00
2019-02-03T03:21:28.335Z,0.00
2019-02-03T03:22:28.345Z,0.00
2019-02-03T03:23:28.343Z,0.00
2019-02-03T03:24:28.350Z,0.00
2019-02-03T03:25:28.350Z,0.00
2019-02-03T03:26:28.355Z,0.00
2019-02-03T03:27:28.360Z,0.00
2019-02-03T03:28:28.362Z,0.00
2019-02-03T03:29:28.370Z,0.00
2019-02-03T03:30:28.382Z,0.00
2019-02-03T03:31:28.379Z,0.00
2019-02-03T03:32:28.385Z,0.00
2019-02-03T03:33:28.397Z,0.00
2019-02-03T03:34:28.392Z,0.00
2019-02-03T03:35:28.394Z,0.00
2019-02-03T03:36:28.399Z,0.00
2019-02-03T03:37:28.403Z,0.00
2019-02-03T03:38:32.151Z,0.00
2019-02-03T03:39:28.409Z,0.00
2019-02-03T03:40:28.412Z,0.00
2019-02-03T03:41:28.420Z,0.00
2019-02-03T03:42:28.422Z,0.00
2019-02-03T03:43:28.428Z,0.00
2019-02-03T03:44:28.430Z,0.00
2019-02-03T03:45:28.443Z,0.00
2019-02-03T03:46:28.445Z,0.00
2019-02-03T03:47:28.442Z,0.00
2019-02-03T03:48:28.448Z,0.00
2019-02-03T03:49:28.451Z,0.00
2019-02-03T03:50:28.458Z,0.00
2019-02-03T03:51:28.461Z,0.00
2019-02-03T03:52:28.461Z,0.00
2019-02-03T03:53:28.471Z,0.00
2019-02-03T03:54:28.475Z,0.00
2019-02-03T03:55:28.477Z,0.00
2019-02-03T03:56:28.479Z,0.00
2019-02-03T03:57:28.483Z,0.00
2019-02-03T03:58:28.487Z,0.00
2019-02-03T03:59:28.509Z,0.00
2019-02-03T04:00:28.496Z,0.00
2019-02-03T04:01:28.498Z,0.00
2019-02-03T04:02:28.504Z,0.00
2019-02-03T04:03:28.507Z,0.00
2019-02-03T04:04:28.516Z,0.00
2019-02-03T04:05:28.519Z,0.00
2019-02-03T04:06:28.524Z,0.00
2019-02-03T04:07:28.525Z,0.00
2019-02-03T04:08:28.529Z,0.00
2019-02-03T04:09:28.531Z,0.00
2019-02-03T04:10:28.539Z,0.00
2019-02-03T04:11:28.542Z,0.00
2019-02-03T04:12:28.550Z,0.00
2019-02-03T04:13:28.551Z,0.00
2019-02-03T04:14:28.555Z,0.00
2019-02-03T04:15:28.566Z,0.00
2019-02-03T04:16:28.562Z,0.00
2019-02-03T04:17:28.565Z,0.00
2019-02-03T04:18:28.570Z,0.00
2019-02-03T04:19:28.577Z,0.00
2019-02-03T04:20:28.586Z,0.00
2019-02-03T04:21:28.582Z,0.00
2019-02-03T04:22:28.590Z,0.00
2019-02-03T04:23:28.594Z,0.00
2019-02-03T04:24:28.595Z,0.00
2019-02-03T04:25:28.619Z,0.00
2019-02-03T04:26:28.609Z,0.00
2019-02-03T04:27:28.606Z,0.00
2019-02-03T04:28:28.610Z,0.00
2019-02-03T04:29:28.621Z,0.00
2019-02-03T04:30:28.623Z,0.00
2019-02-03T04:31:28.625Z,0.00
2019-02-03T04:32:28.627Z,0.00
2019-02-03T04:33:28.631Z,0.00
2019-02-03T04:34:29.902Z,0.00
2019-02-03T04:35:28.638Z,0.00
2019-02-03T04:36:28.643Z,0.00
2019-02-03T04:37:28.648Z,0.00
2019-02-03T04:38:28.654Z,0.00
2019-02-03T04:39:28.656Z,0.00
2019-02-03T04:40:28.657Z,0.00
2019-02-03T04:41:28.664Z,0.00
2019-02-03T04:42:28.664Z,0.00
2019-02-03T04:43:28.672Z,0.00
2019-02-03T04:44:28.674Z,0.00
2019-02-03T04:45:28.678Z,0.00
2019-02-03T04:46:28.683Z,0.00
2019-02-03T04:47:28.699Z,0.00
2019-02-03T04:48:28.691Z,0.00
2019-02-03T04:49:28.692Z,0.00
2019-02-03T04:50:28.700Z,0.00
2019-02-03T04:51:28.705Z,0.00
2019-02-03T04:52:28.704Z,0.00
2019-02-03T04:53:28.708Z,0.00
2019-02-03T04:54:28.720Z,0.00
2019-02-03T04:55:28.719Z,0.00
2019-02-03T04:56:28.724Z,0.00
2019-02-03T04:57:28.727Z,0.00
2019-02-03T04:58:28.731Z,0.00
2019-02-03T04:59:28.776Z,0.00
2019-02-03T05:00:28.743Z,0.00
2019-02-03T05:01:28.740Z,0.00
2019-02-03T05:02:28.745Z,0.00
2019-02-03T05:03:28.755Z,0.00
2019-02-03T05:04:28.754Z,0.00
2019-02-03T05:05:28.758Z,0.00
2019-02-03T05:06:28.764Z,0.00
2019-02-03T05:07:28.769Z,0.00
2019-02-03T05:08:28.769Z,0.00
2019-02-03T05:09:28.773Z,0.00
2019-02-03T05:10:28.777Z,0.00
2019-02-03T05:11:28.788Z,0.00
2019-02-03T05:12:28.786Z,0.00
2019-02-03T05:13:28.790Z,0.00
2019-02-03T05:14:28.799Z,0.00
2019-02-03T05:15:28.804Z,0.00
2019-02-03T05:16:28.801Z,0.00
2019-02-03T05:17:28.809Z,0.00
2019-02-03T05:18:28.811Z,0.00
2019-02-03T05:19:28.819Z,0.00
2019-02-03T05:20:28.819Z,0.00
2019-02-03T05:21:28.823Z,0.00
2019-02-03T05:22:28.835Z,0.00
2019-02-03T05:23:28.831Z,0.00
2019-02-03T05:24:28.842Z,0.00
2019-02-03T05:25:28.859Z,0.00
2019-02-03T05:26:28.845Z,0.00
2019-02-03T05:27:28.848Z,0.00
2019-02-03T05:28:28.853Z,0.00
2019-02-03T05:29:28.853Z,0.00
2019-02-03T05:30:28.858Z,0.00
2019-02-03T05:31:28.867Z,0.00
2019-02-03T05:32:28.867Z,0.00
2019-02-03T05:33:28.879Z,0.00
2019-02-03T05:34:28.875Z,0.00
2019-02-03T05:35:28.878Z,0.00
2019-02-03T05:36:28.882Z,0.00
2019-02-03T05:37:28.886Z,0.00
2019-02-03T05:38:28.890Z,0.00
2019-02-03T05:39:28.896Z,0.00
2019-02-03T05:40:28.898Z,0.00
2019-02-03T05:41:28.901Z,0.00
2019-02-03T05:42:28.906Z,0.00
2019-02-03T05:43:28.911Z,0.00
2019-02-03T05:44:28.912Z,0.00
2019-02-03T05:45:28.923Z,0.00
2019-02-03T05:46:28.929Z,0.00
2019-02-03T05:47:28.952Z,0.00
2019-02-03T05:48:28.938Z,0.00
2019-02-03T05:49:28.935Z,0.00
2019-02-03T05:50:28.938Z,0.00
2019-02-03T05:51:28.943Z,0.00
2019-02-03T05:52:28.945Z,0.00
2019-02-03T05:53:28.952Z,0.00
2019-02-03T05:54:28.955Z,0.00
2019-02-03T05:55:28.959Z,0.00
2019-02-03T05:56:28.963Z,0.00
2019-02-03T05:57:28.964Z,0.00
2019-02-03T05:58:28.972Z,0.00
2019-02-03T05:59:28.978Z,0.00
2019-02-03T06:00:28.976Z,0.00
2019-02-03T06:01:28.981Z,0.00
2019-02-03T06:02:28.985Z,0.00
2019-02-03T06:03:28.991Z,0.00
2019-02-03T06:04:28.994Z,0.00
2019-02-03T06:05:29.159Z,0.00
2019-02-03T06:06:29.003Z,0.00
2019-02-03T06:07:29.005Z,0.00
2019-02-03T06:08:29.014Z,0.00
2019-02-03T06:09:36.230Z,0.00
2019-02-03T06:10:29.016Z,0.00
2019-02-03T06:11:29.021Z,0.00
2019-02-03T06:12:29.024Z,0.00
2019-02-03T06:13:29.028Z,0.00
2019-02-03T06:14:29.035Z,0.00
2019-02-03T06:15:29.036Z,0.00
2019-02-03T06:16:29.042Z,0.00
2019-02-03T06:17:29.045Z,0.00
2019-02-03T06:18:29.049Z,0.00
2019-02-03T06:19:29.145Z,0.00
2019-02-03T06:20:29.056Z,0.00
2019-02-03T06:21:29.059Z,0.00
2019-02-03T06:22:29.068Z,0.00
2019-02-03T06:23:29.067Z,0.00
2019-02-03T06:24:29.069Z,0.00
2019-02-03T06:25:29.075Z,0.00
2019-02-03T06:26:29.078Z,0.00
2019-02-03T06:27:29.085Z,0.00
2019-02-03T06:28:29.088Z,0.00
2019-02-03T06:29:29.093Z,0.00
2019-02-03T06:30:29.093Z,0.00
2019-02-03T06:31:29.097Z,0.00
2019-02-03T06:32:29.100Z,4.00
2019-02-03T06:33:29.104Z,0.00
2019-02-03T06:34:29.109Z,0.00
2019-02-03T06:35:29.114Z,4.00
2019-02-03T06:36:29.174Z,0.00
2019-02-03T06:37:29.119Z,0.00
2019-02-03T06:38:29.125Z,4.00
2019-02-03T06:39:29.252Z,4.00
2019-02-03T06:40:29.130Z,0.00
2019-02-03T06:41:29.138Z,4.00
2019-02-03T06:42:29.146Z,4.00
2019-02-03T06:43:29.141Z,4.00
2019-02-03T06:44:29.145Z,8.00
2019-02-03T06:45:29.149Z,4.00
2019-02-03T06:46:29.152Z,8.00
2019-02-03T06:47:29.156Z,8.00
2019-02-03T06:48:29.160Z,8.00
2019-02-03T06:49:29.164Z,12.00
2019-02-03T06:50:29.179Z,12.00
2019-02-03T06:51:29.172Z,12.00
2019-02-03T06:52:29.176Z,12.00
2019-02-03T06:53:29.179Z,12.00
2019-02-03T06:54:29.182Z,16.00
2019-02-03T06:55:29.187Z,16.00
2019-02-03T06:56:29.196Z,20.00
2019-02-03T06:57:29.197Z,20.00
2019-02-03T06:58:29.200Z,24.00
2019-02-03T06:59:29.206Z,24.00
2019-02-03T07:00:29.207Z,24.00
2019-02-03T07:01:29.208Z,24.00
2019-02-03T07:02:29.214Z,28.00
2019-02-03T07:03:29.216Z,28.00
2019-02-03T07:04:29.220Z,28.00
2019-02-03T07:05:29.225Z,28.00
2019-02-03T07:06:29.230Z,32.00
2019-02-03T07:07:29.232Z,36.00
2019-02-03T07:08:29.236Z,36.00
2019-02-03T07:09:29.240Z,36.00
2019-02-03T07:10:29.244Z,40.00
2019-02-03T07:11:29.248Z,44.00
2019-02-03T07:12:29.258Z,44.00
2019-02-03T07:13:29.257Z,48.00
2019-02-03T07:14:29.259Z,48.00
2019-02-03T07:15:29.263Z,52.00
2019-02-03T07:16:40.180Z,56.00
2019-02-03T07:17:29.273Z,64.00
2019-02-03T07:18:29.275Z,64.00
2019-02-03T07:19:29.280Z,72.00
2019-02-03T07:20:29.282Z,72.00
2019-02-03T07:21:29.292Z,76.00
2019-02-03T07:22:29.290Z,80.00
2019-02-03T07:23:29.294Z,84.00
2019-02-03T07:24:29.297Z,88.00
2019-02-03T07:25:29.302Z,92.00
2019-02-03T07:26:29.311Z,96.00
2019-02-03T07:27:29.311Z,96.00
2019-02-03T07:28:29.313Z,92.00
2019-02-03T07:29:29.318Z,92.00
2019-02-03T07:30:29.321Z,96.00
2019-02-03T07:31:29.324Z,96.00
2019-02-03T07:32:29.328Z,100.00
2019-02-03T07:33:29.331Z,104.00
2019-02-03T07:34:29.336Z,112.00
2019-02-03T07:35:29.340Z,112.00
2019-02-03T07:36:29.344Z,116.00
2019-02-03T07:37:29.346Z,120.00
2019-02-03T07:38:29.351Z,120.00
2019-02-03T07:39:29.358Z,128.00
2019-02-03T07:40:29.360Z,132.00
2019-02-03T07:41:29.362Z,136.00
2019-02-03T07:42:29.368Z,140.00
2019-02-03T07:43:29.372Z,140.00
2019-02-03T07:44:29.376Z,144.00
2019-02-03T07:45:29.378Z,144.00
2019-02-03T07:46:29.383Z,144.00
2019-02-03T07:47:29.388Z,148.00
2019-02-03T07:48:29.390Z,144.00
2019-02-03T07:49:29.393Z,148.00
2019-02-03T07:50:29.397Z,152.00
2019-02-03T07:51:29.401Z,160.00
2019-02-03T07:52:29.406Z,164.00
2019-02-03T07:53:29.419Z,168.00
2019-02-03T07:54:29.413Z,168.00
2019-02-03T07:55:29.418Z,168.00
2019-02-03T07:56:29.419Z,176.00
2019-02-03T07:57:29.425Z,184.00
2019-02-03T07:58:29.432Z,192.00
2019-02-03T07:59:29.434Z,200.00
2019-02-03T08:00:29.437Z,200.00
2019-02-03T08:01:29.440Z,204.00
2019-02-03T08:02:29.444Z,204.00
2019-02-03T08:03:29.452Z,208.00
2019-02-03T08:04:29.454Z,216.00
2019-02-03T08:05:29.455Z,216.00
2019-02-03T08:06:29.484Z,216.00
2019-02-03T08:07:29.464Z,224.00
2019-02-03T08:08:29.469Z,232.00
2019-02-03T08:09:29.470Z,236.00
2019-02-03T08:10:29.813Z,240.00
2019-02-03T08:11:29.479Z,244.00
2019-02-03T08:12:29.483Z,244.00
2019-02-03T08:13:29.488Z,248.00
2019-02-03T08:14:29.493Z,252.00
2019-02-03T08:15:29.494Z,256.00
2019-02-03T08:16:29.514Z,268.00
2019-02-03T08:17:29.504Z,276.00
2019-02-03T08:18:29.508Z,284.00
2019-02-03T08:19:29.511Z,296.00
2019-02-03T08:20:29.520Z,300.00
2019-02-03T08:21:29.517Z,304.00
2019-02-03T08:22:29.523Z,308.00
2019-02-03T08:23:29.527Z,312.00
2019-02-03T08:24:29.532Z,308.00
2019-02-03T08:25:29.537Z,312.00
2019-02-03T08:26:29.538Z,316.00
2019-02-03T08:27:29.543Z,320.00
2019-02-03T08:28:29.548Z,328.00
2019-02-03T08:29:29.552Z,332.00
2019-02-03T08:30:29.555Z,340.00
2019-02-03T08:31:29.562Z,348.00
2019-02-03T08:32:29.563Z,352.00
2019-02-03T08:33:29.567Z,360.00
2019-02-03T08:34:29.571Z,368.00
2019-02-03T08:35:29.577Z,380.00
2019-02-03T08:36:29.626Z,388.00
2019-02-03T08:37:29.584Z,396.00
2019-02-03T08:38:29.589Z,396.00
2019-02-03T08:39:29.594Z,396.00
2019-02-03T08:40:36.905Z,404.00
2019-02-03T08:41:29.601Z,412.00
2019-02-03T08:42:29.605Z,420.00
2019-02-03T08:43:29.615Z,428.00
2019-02-03T08:44:29.616Z,436.00
2019-02-03T08:45:29.620Z,444.00
2019-02-03T08:46:29.624Z,448.00
2019-02-03T08:47:29.631Z,448.00
2019-02-03T08:48:29.633Z,444.00
2019-02-03T08:49:29.638Z,432.00
2019-02-03T08:50:29.646Z,420.00
2019-02-03T08:51:32.292Z,416.00
2019-02-03T08:52:29.652Z,428.00
2019-02-03T08:53:29.656Z,448.00
2019-02-03T08:54:29.660Z,464.00
2019-02-03T08:55:29.665Z,472.00
2019-02-03T08:56:29.673Z,476.00
2019-02-03T08:57:29.674Z,476.00
2019-02-03T08:58:29.682Z,484.00
2019-02-03T08:59:29.684Z,484.00
2019-02-03T09:00:29.692Z,480.00
2019-02-03T09:01:29.693Z,480.00
2019-02-03T09:02:29.711Z,492.00
2019-02-03T09:03:29.705Z,508.00
2019-02-03T09:04:29.708Z,520.00
2019-02-03T09:05:29.711Z,520.00
2019-02-03T09:06:29.721Z,520.00
2019-02-03T09:07:29.728Z,528.00
2019-02-03T09:08:29.727Z,544.00
2019-02-03T09:09:29.730Z,556.00
2019-02-03T09:10:29.738Z,556.00
2019-02-03T09:11:29.740Z,548.00
2019-02-03T09:12:29.744Z,548.00
2019-02-03T09:13:29.752Z,552.00
2019-02-03T09:14:29.758Z,556.00
2019-02-03T09:15:29.759Z,564.00
2019-02-03T09:16:29.765Z,568.00
2019-02-03T09:17:29.769Z,584.00
2019-02-03T09:18:29.774Z,592.00
2019-02-03T09:19:29.780Z,592.00
2019-02-03T09:20:29.782Z,584.00
2019-02-03T09:21:29.790Z,564.00
2019-02-03T09:22:29.791Z,560.00
2019-02-03T09:23:29.801Z,560.00
2019-02-03T09:24:29.800Z,576.00
2019-02-03T09:25:29.807Z,604.00
2019-02-03T09:26:29.809Z,620.00
2019-02-03T09:27:29.815Z,620.00
2019-02-03T09:28:29.821Z,612.00
2019-02-03T09:29:29.823Z,584.00
2019-02-03T09:30:29.829Z,568.00
2019-02-03T09:31:29.834Z,580.00
2019-02-03T09:32:29.837Z,608.00
2019-02-03T09:33:29.846Z,632.00
2019-02-03T09:34:29.846Z,656.00
2019-02-03T09:35:29.852Z,668.00
2019-02-03T09:36:29.856Z,660.00
2019-02-03T09:37:29.865Z,640.00
2019-02-03T09:38:29.865Z,612.00
2019-02-03T09:39:29.874Z,592.00
2019-02-03T09:40:29.877Z,592.00
2019-02-03T09:41:29.885Z,592.00
2019-02-03T09:42:29.887Z,588.00
2019-02-03T09:43:29.892Z,584.00
2019-02-03T09:44:29.896Z,580.00
2019-02-03T09:45:29.904Z,584.00
2019-02-03T09:46:29.904Z,588.00
2019-02-03T09:47:29.909Z,588.00
2019-02-03T09:48:29.917Z,592.00
2019-02-03T09:49:29.919Z,600.00
2019-02-03T09:50:29.924Z,604.00
2019-02-03T09:51:29.931Z,616.00
2019-02-03T09:52:29.932Z,612.00
2019-02-03T09:53:29.938Z,604.00
2019-02-03T09:54:29.941Z,596.00
2019-02-03T09:55:29.947Z,584.00
2019-02-03T09:56:29.954Z,560.00
2019-02-03T09:57:29.959Z,560.00
2019-02-03T09:58:29.969Z,580.00
2019-02-03T09:59:29.967Z,620.00
2019-02-03T10:00:29.976Z,660.00
2019-02-03T10:01:29.978Z,700.00
2019-02-03T10:02:29.984Z,724.00
2019-02-03T10:03:29.989Z,736.00
2019-02-03T10:04:29.990Z,728.00
2019-02-03T10:05:29.995Z,700.00
2019-02-03T10:06:30.000Z,656.00
2019-02-03T10:07:30.011Z,628.00
2019-02-03T10:08:40.343Z,620.00
2019-02-03T10:09:30.019Z,608.00
2019-02-03T10:10:30.023Z,608.00
2019-02-03T10:11:30.026Z,620.00
2019-02-03T10:12:30.031Z,640.00
2019-02-03T10:13:30.034Z,672.00
2019-02-03T10:14:30.039Z,700.00
2019-02-03T10:15:30.046Z,720.00
2019-02-03T10:16:30.050Z,740.00
2019-02-03T10:17:30.058Z,744.00
2019-02-03T10:18:30.060Z,744.00
2019-02-03T10:19:30.067Z,752.00
2019-02-03T10:20:30.071Z,760.00
2019-02-03T10:21:30.072Z,764.00
2019-02-03T10:22:30.077Z,760.00
2019-02-03T10:23:30.088Z,748.00
2019-02-03T10:24:41.685Z,744.00
2019-02-03T10:25:30.091Z,752.00
2019-02-03T10:26:30.100Z,768.00
2019-02-03T10:27:30.102Z,788.00
2019-02-03T10:28:30.109Z,792.00
2019-02-03T10:29:30.112Z,792.00
2019-02-03T10:30:30.120Z,792.00
2019-02-03T10:31:30.124Z,776.00
2019-02-03T10:32:30.409Z,748.00
2019-02-03T10:33:30.135Z,740.00
2019-02-03T10:34:30.137Z,740.00
2019-02-03T10:35:30.145Z,748.00
2019-02-03T10:36:30.249Z,752.00
2019-02-03T10:37:30.152Z,744.00
2019-02-03T10:38:30.161Z,732.00
2019-02-03T10:39:33.005Z,716.00
2019-02-03T10:40:30.172Z,708.00
2019-02-03T10:41:30.174Z,712.00
2019-02-03T10:42:30.180Z,732.00
2019-02-03T10:43:30.183Z,744.00
2019-02-03T10:44:30.187Z,744.00
2019-02-03T10:45:30.206Z,756.00
2019-02-03T10:46:30.198Z,772.00
2019-02-03T10:47:30.208Z,792.00
2019-02-03T10:48:30.210Z,808.00
2019-02-03T10:49:30.214Z,812.00
2019-02-03T10:50:30.223Z,824.00
2019-02-03T10:51:30.226Z,840.00
2019-02-03T10:52:30.229Z,872.00
2019-02-03T10:53:30.233Z,896.00
2019-02-03T10:54:30.291Z,908.00
2019-02-03T10:55:30.245Z,908.00
2019-02-03T10:56:30.248Z,900.00
2019-02-03T10:57:30.258Z,880.00
2019-02-03T10:58:30.260Z,864.00
2019-02-03T10:59:30.266Z,872.00
2019-02-03T11:00:30.269Z,888.00
2019-02-03T11:01:30.273Z,892.00
2019-02-03T11:02:30.278Z,900.00
2019-02-03T11:03:30.288Z,916.00
2019-02-03T11:04:30.287Z,932.00
2019-02-03T11:05:30.291Z,940.00
2019-02-03T11:06:30.297Z,944.00
2019-02-03T11:07:30.302Z,932.00
2019-02-03T11:08:30.306Z,912.00
2019-02-03T11:09:30.313Z,884.00
2019-02-03T11:10:30.321Z,876.00
2019-02-03T11:11:36.767Z,888.00
2019-02-03T11:12:30.324Z,924.00
2019-02-03T11:13:30.333Z,956.00
2019-02-03T11:14:30.345Z,988.00
2019-02-03T11:15:30.344Z,1024.00
2019-02-03T11:16:30.347Z,1036.00
2019-02-03T11:17:30.350Z,1028.00
2019-02-03T11:18:30.366Z,1032.00
2019-02-03T11:19:30.361Z,1032.00
2019-02-03T11:20:30.367Z,1028.00
2019-02-03T11:21:30.372Z,1008.00
2019-02-03T11:22:30.382Z,972.00
2019-02-03T11:23:30.384Z,928.00
2019-02-03T11:24:30.386Z,924.00
2019-02-03T11:25:30.391Z,956.00
2019-02-03T11:26:30.397Z,988.00
2019-02-03T11:27:30.404Z,1000.00
2019-02-03T11:28:30.406Z,992.00
2019-02-03T11:29:30.413Z,968.00
2019-02-03T11:30:30.414Z,968.00
2019-02-03T11:31:30.422Z,992.00
2019-02-03T11:32:30.429Z,980.00
2019-02-03T11:33:30.433Z,968.00
2019-02-03T11:34:30.436Z,980.00
2019-02-03T11:35:30.443Z,1008.00
2019-02-03T11:36:30.448Z,1040.00
2019-02-03T11:37:30.451Z,1052.00
2019-02-03T11:38:30.461Z,1040.00
2019-02-03T11:39:30.462Z,1024.00
2019-02-03T11:40:30.468Z,1012.00
2019-02-03T11:41:30.473Z,1016.00
2019-02-03T11:42:30.483Z,1020.00
2019-02-03T11:43:30.487Z,1028.00
2019-02-03T11:44:30.486Z,1032.00
2019-02-03T11:45:30.491Z,1040.00
2019-02-03T11:46:30.497Z,1048.00
2019-02-03T11:47:30.502Z,1060.00
2019-02-03T11:48:30.510Z,1068.00
2019-02-03T11:49:30.511Z,1048.00
2019-02-03T11:50:30.515Z,1012.00
2019-02-03T11:51:30.524Z,972.00
2019-02-03T11:52:30.530Z,932.00
2019-02-03T11:53:30.531Z,904.00
2019-02-03T11:54:30.543Z,916.00
2019-02-03T11:55:30.546Z,952.00
2019-02-03T11:56:30.551Z,976.00
2019-02-03T11:57:30.555Z,992.00
2019-02-03T11:58:30.562Z,980.00
2019-02-03T11:59:30.564Z,940.00
2019-02-03T12:00:30.569Z,912.00
2019-02-03T12:01:30.577Z,912.00
2019-02-03T12:02:41.503Z,940.00
2019-02-03T12:03:30.585Z,984.00
2019-02-03T12:04:30.592Z,1020.00
2019-02-03T12:05:30.596Z,1016.00
2019-02-03T12:06:30.603Z,1004.00
2019-02-03T12:07:30.609Z,996.00
2019-02-03T12:08:30.611Z,996.00
2019-02-03T12:09:30.617Z,1028.00
2019-02-03T12:10:30.624Z,1048.00
2019-02-03T12:11:30.628Z,1060.00
2019-02-03T12:12:30.634Z,1092.00
2019-02-03T12:13:30.639Z,1112.00
2019-02-03T12:14:30.648Z,1116.00
2019-02-03T12:15:30.654Z,1108.00
2019-02-03T12:16:30.656Z,1096.00
2019-02-03T12:17:30.662Z,1080.00
2019-02-03T12:18:30.666Z,1068.00
2019-02-03T12:19:30.673Z,1036.00
2019-02-03T12:20:30.681Z,1012.00
2019-02-03T12:21:30.685Z,980.00
2019-02-03T12:22:30.690Z,960.00
2019-02-03T12:23:30.697Z,964.00
2019-02-03T12:24:30.705Z,984.00
2019-02-03T12:25:30.711Z,1012.00
2019-02-03T12:26:30.713Z,1048.00
2019-02-03T12:27:30.722Z,1076.00
2019-02-03T12:28:30.724Z,1056.00
2019-02-03T12:29:30.730Z,1012.00
2019-02-03T12:30:30.736Z,984.00
2019-02-03T12:31:30.744Z,984.00
2019-02-03T12:32:30.754Z,984.00
2019-02-03T12:33:30.755Z,992.00
2019-02-03T12:34:30.760Z,996.00
2019-02-03T12:35:30.771Z,1012.00
2019-02-03T12:36:30.772Z,1048.00
2019-02-03T12:37:30.778Z,1068.00
2019-02-03T12:38:30.786Z,1080.00
2019-02-03T12:39:30.793Z,1080.00
2019-02-03T12:40:30.797Z,1084.00
2019-02-03T12:41:30.800Z,1072.00
2019-02-03T12:42:30.810Z,1080.00
2019-02-03T12:43:30.816Z,1100.00
2019-02-03T12:44:30.819Z,1120.00
2019-02-03T12:45:30.828Z,1136.00
2019-02-03T12:46:30.834Z,1144.00
2019-02-03T12:47:30.840Z,1136.00
2019-02-03T12:48:30.847Z,1136.00
2019-02-03T12:49:30.852Z,1152.00
2019-02-03T12:50:31.538Z,1152.00
2019-02-03T12:51:30.863Z,1128.00
2019-02-03T12:52:30.869Z,1092.00
2019-02-03T12:53:30.875Z,1088.00